Time;durP1;ratioP1;P1;durP2;ratioP2;P2;SDS_P1;SDS_P2;PMS_P1;PMS_P2;Temp;Humidity;BMP_temperature;BMP_pressure;BME280_temperature;BME280_humidity;BME280_pressure;Samples;Min_cycle;Max_cycle;Signal;HPM_P1;HPM_P2
2021/09/03 00:02:10;;;;;;;8.67;6.70;;;;;;;13.75;96.04;99211.56;4994594;28;103964;-66
2021/09/03 00:04:39;;;;;;;9.23;8.27;;;;;;;13.72;95.00;99206.53;4996459;28;103277;-66
2021/09/03 00:07:07;;;;;;;10.30;9.30;;;;;;;13.40;97.35;99205.47;4981343;28;103479;-65
2021/09/03 00:09:35;;;;;;;7.33;6.70;;;;;;;13.65;96.71;99199.13;4994011;28;104705;-66
2021/09/03 00:12:06;;;;;;;10.97;9.87;;;;;;;13.40;96.50;99201.97;4979362;28;102824;-66
2021/09/03 00:14:36;;;;;;;12.40;10.37;;;;;;;12.86;100.00;99199.78;4997945;28;103987;-66
2021/09/03 00:17:05;;;;;;;9.90;8.93;;;;;;;12.87;100.00;99205.94;4998478;28;103226;-66
2021/09/03 00:19:33;;;;;;;11.17;10.07;;;;;;;12.78;100.00;99195.06;4994984;28;102785;-65
2021/09/03 00:22:01;;;;;;;12.07;10.87;;;;;;;12.56;100.00;99194.09;4998222;28;103984;-64
2021/09/03 00:24:29;;;;;;;11.83;10.27;;;;;;;12.71;100.00;99195.63;4997774;28;103936;-64
2021/09/03 00:26:57;;;;;;;9.23;8.33;;;;;;;12.85;100.00;99198.13;4998778;28;103224;-65
2021/09/03 00:29:25;;;;;;;12.13;9.80;;;;;;;12.94;100.00;99188.63;4999262;28;102695;-64
2021/09/03 00:31:55;;;;;;;8.63;7.83;;;;;;;13.19;100.00;99186.69;4996463;28;102674;-65
2021/09/03 00:34:23;;;;;;;7.30;6.60;;;;;;;13.33;98.54;99186.50;4997819;28;103758;-65
2021/09/03 00:36:51;;;;;;;10.23;9.33;;;;;;;13.06;98.89;99180.59;4980273;28;103267;-64
2021/09/03 00:39:19;;;;;;;10.23;8.10;;;;;;;13.05;99.65;99178.06;4997821;28;102978;-64
2021/09/03 00:41:47;;;;;;;10.30;8.60;;;;;;;13.03;98.69;99178.16;4998059;28;102726;-64
2021/09/03 00:44:15;;;;;;;10.67;9.67;;;;;;;12.88;99.68;99183.78;4980055;28;103275;-64
2021/09/03 00:46:43;;;;;;;9.70;8.70;;;;;;;12.99;99.50;99179.38;4979040;28;103204;-64
2021/09/03 00:49:13;;;;;;;12.70;9.57;;;;;;;12.93;98.77;99173.69;4997424;28;102915;-65
2021/09/03 00:51:41;;;;;;;11.03;9.83;;;;;;;12.74;99.34;99177.66;5002268;28;102697;-64
2021/09/03 00:54:10;;;;;;;9.93;9.03;;;;;;;12.91;99.99;99179.09;4998986;28;103294;-63
2021/09/03 00:56:38;;;;;;;11.83;10.63;;;;;;;12.82;99.26;99170.97;5002625;28;103048;-64
2021/09/03 00:59:06;;;;;;;8.87;7.97;;;;;;;12.79;100.00;99177.34;4998114;28;102665;-64
2021/09/03 01:01:34;;;;;;;7.67;6.97;;;;;;;12.95;98.72;99164.63;4991886;28;102729;-65
2021/09/03 01:04:03;;;;;;;7.83;7.13;;;;;;;13.12;97.44;99164.25;4990908;28;104013;-64
2021/09/03 01:06:33;;;;;;;8.83;8.03;;;;;;;13.18;95.37;99169.09;4999860;28;103205;-64
2021/09/03 01:09:02;;;;;;;9.50;8.50;;;;;;;12.85;98.19;99157.50;4995644;28;103609;-65
2021/09/03 01:11:30;;;;;;;10.60;9.50;;;;;;;12.55;98.88;99164.09;5001721;28;102689;-65
2021/09/03 01:13:58;;;;;;;11.50;8.57;;;;;;;12.45;100.00;99167.53;4973703;28;103029;-65
2021/09/03 01:16:26;;;;;;;7.03;6.40;;;;;;;12.71;99.58;99167.31;4992919;28;103221;-65
2021/09/03 01:18:54;;;;;;;10.97;9.70;;;;;;;12.63;97.75;99171.50;4995891;28;102765;-64
2021/09/03 01:21:22;;;;;;;9.03;8.13;;;;;;;12.59;99.47;99165.56;4999689;28;102737;-65
2021/09/03 01:23:52;;;;;;;7.27;6.57;;;;;;;12.75;98.38;99170.56;5002140;28;104171;-65
2021/09/03 01:26:20;;;;;;;11.17;9.73;;;;;;;12.79;96.73;99167.59;5000909;28;103354;-64
2021/09/03 01:28:48;;;;;;;9.83;8.93;;;;;;;12.75;96.58;99170.56;4999498;28;102582;-64
2021/09/03 01:31:17;;;;;;;10.23;9.27;;;;;;;12.68;98.20;99159.59;4998982;28;102745;-65
2021/09/03 01:33:45;;;;;;;10.83;9.40;;;;;;;12.54;98.85;99167.72;4998541;28;103263;-65
2021/09/03 01:36:13;;;;;;;10.67;9.67;;;;;;;12.35;100.00;99167.31;4979915;28;103477;-64
2021/09/03 01:38:42;;;;;;;10.90;9.90;;;;;;;12.34;100.00;99175.41;4997499;28;102653;-64
2021/09/03 01:41:12;;;;;;;9.73;8.77;;;;;;;12.18;100.00;99173.84;4983278;28;103936;-64
2021/09/03 01:43:40;;;;;;;9.87;8.87;;;;;;;12.28;100.00;99165.22;4996204;28;103484;-65
2021/09/03 01:46:08;;;;;;;12.70;10.23;;;;;;;12.26;100.00;99175.09;4992116;28;104540;-64
2021/09/03 01:48:36;;;;;;;10.50;9.40;;;;;;;12.37;100.00;99167.22;5001129;28;102624;-64
2021/09/03 01:51:04;;;;;;;7.23;6.57;;;;;;;12.57;100.00;99163.97;4999197;28;102638;-64
2021/09/03 01:53:32;;;;;;;9.70;8.80;;;;;;;12.52;98.32;99159.00;4980834;28;104413;-65
2021/09/03 01:56:00;;;;;;;11.30;10.23;;;;;;;12.02;100.00;99154.69;5001364;28;103241;-65
2021/09/03 01:58:30;;;;;;;13.83;11.43;;;;;;;11.99;100.00;99159.34;4978883;28;102665;-64
2021/09/03 02:00:58;;;;;;;10.77;9.77;;;;;;;11.98;100.00;99152.38;4992676;28;102632;-65
2021/09/03 02:03:26;;;;;;;12.03;10.70;;;;;;;12.09;100.00;99160.41;4992851;28;103900;-65
2021/09/03 02:05:56;;;;;;;11.17;10.10;;;;;;;12.15;100.00;99158.16;4999212;28;103208;-65
2021/09/03 02:08:24;;;;;;;7.93;7.23;;;;;;;12.24;100.00;99158.47;4997758;28;102772;-64
2021/09/03 02:10:52;;;;;;;8.20;7.37;;;;;;;12.40;100.00;99159.91;5002914;28;102757;-64
2021/09/03 02:13:20;;;;;;;10.67;9.60;;;;;;;12.34;100.00;99154.19;4982041;28;103847;-64
2021/09/03 02:15:50;;;;;;;7.90;7.10;;;;;;;12.46;99.97;99146.19;5000875;28;103274;-64
2021/09/03 02:18:18;;;;;;;10.33;9.20;;;;;;;12.46;97.63;99153.31;4977963;28;102802;-64
2021/09/03 02:20:46;;;;;;;7.53;6.83;;;;;;;12.51;97.19;99146.72;5000272;28;102932;-64
2021/09/03 02:23:14;;;;;;;7.80;7.10;;;;;;;12.56;96.16;99155.19;4999194;28;103951;-64
2021/09/03 02:25:42;;;;;;;10.00;9.10;;;;;;;12.31;95.87;99141.19;5000365;28;103310;-64
2021/09/03 02:28:12;;;;;;;10.53;9.40;;;;;;;11.95;99.72;99149.94;5000555;28;102595;-65
2021/09/03 02:30:40;;;;;;;12.80;8.90;;;;;;;12.02;98.67;99146.75;4997882;28;102588;-65
2021/09/03 02:33:10;;;;;;;9.67;8.77;;;;;;;12.07;98.52;99151.75;5000650;28;103290;-65
2021/09/03 02:35:38;;;;;;;9.03;8.13;;;;;;;12.13;98.04;99152.13;4979711;28;103998;-64
2021/09/03 02:38:06;;;;;;;7.30;6.60;;;;;;;12.28;97.36;99144.91;4996353;28;102550;-65
2021/09/03 02:40:34;;;;;;;7.73;6.97;;;;;;;12.29;95.53;99140.44;5000317;28;103835;-65
2021/09/03 02:43:02;;;;;;;8.60;7.70;;;;;;;12.20;95.65;99139.31;4980192;28;103273;-65
2021/09/03 02:45:31;;;;;;;11.27;9.97;;;;;;;11.91;97.13;99141.38;4994982;28;103296;-64
2021/09/03 02:48:01;;;;;;;9.10;8.20;;;;;;;11.81;99.47;99145.63;5000845;28;102630;-63
2021/09/03 02:50:31;;;;;;;9.60;8.47;;;;;;;11.79;100.00;99150.16;5000763;28;102622;-64
2021/09/03 02:52:59;;;;;;;9.47;8.67;;;;;;;11.72;100.00;99140.97;4997280;28;104452;-65
2021/09/03 02:55:28;;;;;;;10.83;9.83;;;;;;;11.57;100.00;99136.72;4999718;28;103208;-65
2021/09/03 02:57:56;;;;;;;9.77;8.87;;;;;;;11.59;100.00;99133.00;5001209;28;102774;-63
2021/09/03 03:00:25;;;;;;;10.50;9.37;;;;;;;11.74;100.00;99125.84;5000015;28;102693;-66
2021/09/03 03:02:53;;;;;;;11.07;9.97;;;;;;;11.62;100.00;99130.16;4993017;28;103366;-63
2021/09/03 03:05:22;;;;;;;9.30;8.47;;;;;;;11.68;100.00;99123.56;4999085;28;103210;-62
2021/09/03 03:07:51;;;;;;;13.87;11.13;;;;;;;11.43;100.00;99118.28;4999100;28;102950;-62
2021/09/03 03:10:20;;;;;;;11.30;10.20;;;;;;;11.29;100.00;99110.47;4995438;28;102614;-62
2021/09/03 03:12:52;;;;;;;12.63;10.83;;;;;;;11.36;100.00;99111.75;4994619;28;103225;-64
2021/09/03 03:15:22;;;;;;;11.07;10.00;;;;;;;11.37;100.00;99109.00;4998151;28;103265;-64
2021/09/03 03:17:50;;;;;;;12.77;11.47;;;;;;;11.39;100.00;99114.19;4999504;28;102663;-63
2021/09/03 03:20:20;;;;;;;11.07;9.87;;;;;;;11.43;100.00;99110.38;4981260;28;102731;-64
2021/09/03 03:22:48;;;;;;;11.57;10.37;;;;;;;11.49;100.00;99118.72;4997716;28;103332;-62
2021/09/03 03:25:17;;;;;;;9.67;8.77;;;;;;;11.55;100.00;99113.03;5000075;28;103183;-62
2021/09/03 03:27:45;;;;;;;9.37;7.67;;;;;;;11.66;100.00;99114.91;4995591;28;102827;-63
2021/09/03 03:30:18;;;;;;;10.07;7.50;;;;;;;11.67;100.00;99116.59;4991459;28;102742;-63
2021/09/03 03:32:46;;;;;;;7.20;6.20;;;;;;;11.74;100.00;99111.75;4998401;28;103234;-63
2021/09/03 03:35:14;;;;;;;5.70;5.20;;;;;;;11.82;100.00;99112.91;4980493;28;103142;-64
2021/09/03 03:37:42;;;;;;;7.30;6.60;;;;;;;11.85;98.47;99112.69;4999778;28;102679;-64
2021/09/03 03:40:11;;;;;;;10.43;8.67;;;;;;;11.72;97.81;99114.50;4999533;28;102788;-64
2021/09/03 03:42:41;;;;;;;9.00;8.10;;;;;;;11.56;98.57;99113.88;4981491;28;103189;-64
2021/09/03 03:45:10;;;;;;;8.67;7.67;;;;;;;11.47;99.71;99120.66;4998018;28;103203;-65
2021/09/03 03:47:38;;;;;;;8.43;7.63;;;;;;;11.49;99.40;99112.59;4979517;28;102758;-64
2021/09/03 03:50:08;;;;;;;10.70;9.20;;;;;;;11.46;98.23;99108.34;4981486;28;104016;-63
2021/09/03 03:52:36;;;;;;;10.07;9.10;;;;;;;11.17;100.00;99108.69;4992247;28;103968;-64
2021/09/03 03:55:05;;;;;;;6.90;6.20;;;;;;;11.38;100.00;99108.03;4997195;28;103024;-64
2021/09/03 03:57:34;;;;;;;6.40;5.80;;;;;;;11.53;99.20;99108.78;4992253;28;102565;-64
2021/09/03 04:00:04;;;;;;;7.03;6.43;;;;;;;11.49;97.97;99109.94;4999803;28;102751;-63
2021/09/03 04:02:33;;;;;;;9.53;8.23;;;;;;;11.35;97.99;99107.41;4992356;28;103194;-63
2021/09/03 04:05:01;;;;;;;11.63;10.43;;;;;;;11.11;99.11;99112.59;4995984;28;103366;-65
2021/09/03 04:07:30;;;;;;;9.50;8.43;;;;;;;11.22;99.52;99107.41;4996979;28;102820;-65
2021/09/03 04:09:58;;;;;;;7.57;6.83;;;;;;;11.31;98.76;99109.41;4996549;28;103919;-65
2021/09/03 04:12:26;;;;;;;6.10;5.50;;;;;;;11.32;98.71;99110.25;4996543;28;103295;-64
2021/09/03 04:14:54;;;;;;;9.97;9.03;;;;;;;11.23;97.26;99116.19;4979614;28;103354;-65
2021/09/03 04:17:24;;;;;;;11.90;9.00;;;;;;;11.13;97.91;99109.81;4999134;28;103952;-65
2021/09/03 04:19:52;;;;;;;10.23;9.33;;;;;;;10.84;100.00;99109.13;4997001;28;102674;-65
2021/09/03 04:22:20;;;;;;;9.27;8.37;;;;;;;10.79;100.00;99106.81;4994063;28;103238;-66
2021/09/03 04:24:48;;;;;;;9.63;8.73;;;;;;;10.67;100.00;99104.97;4994494;28;103288;-64
2021/09/03 04:27:15;;;;;;;9.47;8.47;;;;;;;10.88;100.00;99105.34;4998490;28;102547;-64
2021/09/03 04:29:43;;;;;;;10.60;9.60;;;;;;;10.54;100.00;99097.97;4998035;28;104358;-64
2021/09/03 04:32:11;;;;;;;7.63;6.93;;;;;;;10.89;100.00;99105.25;4995866;28;103347;-64
2021/09/03 04:34:41;;;;;;;7.73;7.03;;;;;;;11.13;100.00;99109.81;4996511;28;103253;-64
2021/09/03 04:37:09;;;;;;;8.03;7.33;;;;;;;11.19;100.00;99110.25;4994386;28;102659;-63
2021/09/03 04:39:37;;;;;;;9.27;8.37;;;;;;;10.85;100.00;99122.28;4997952;28;104089;-62
2021/09/03 04:42:05;;;;;;;6.93;6.23;;;;;;;11.01;100.00;99119.44;4996673;28;103959;-63
2021/09/03 04:44:33;;;;;;;5.97;5.47;;;;;;;11.16;98.66;99125.50;4998162;28;103221;-63
2021/09/03 04:47:01;;;;;;;6.23;5.63;;;;;;;11.25;97.38;99125.72;4995633;28;102821;-64
2021/09/03 04:49:29;;;;;;;10.43;8.47;;;;;;;10.97;96.72;99126.75;4999472;28;102930;-64
2021/09/03 04:51:58;;;;;;;11.77;9.07;;;;;;;10.63;99.55;99132.56;4998716;28;103118;-64
2021/09/03 04:54:26;;;;;;;8.10;7.17;;;;;;;10.77;100.00;99135.16;4996882;28;103234;-64
2021/09/03 04:56:55;;;;;;;9.70;8.70;;;;;;;10.67;100.00;99134.03;4998436;28;102707;-64
2021/09/03 04:59:23;;;;;;;13.07;9.53;;;;;;;10.39;100.00;99129.72;4997100;28;102765;-64
2021/09/03 05:01:51;;;;;;;9.50;7.70;;;;;;;10.76;100.00;99128.16;4999289;28;103765;-64
2021/09/03 05:04:19;;;;;;;7.43;6.73;;;;;;;10.99;100.00;99130.13;4992513;28;103007;-64
2021/09/03 05:06:48;;;;;;;7.97;7.13;;;;;;;11.14;100.00;99128.25;4993830;28;102588;-64
2021/09/03 05:09:17;;;;;;;6.00;5.50;;;;;;;11.23;99.27;99126.78;4995603;28;102669;-64
2021/09/03 05:11:45;;;;;;;5.93;5.33;;;;;;;11.31;97.65;99135.03;4996959;28;103275;-64
2021/09/03 05:14:13;;;;;;;5.63;5.13;;;;;;;11.41;96.54;99133.44;4995996;28;103232;-64
2021/09/03 05:16:41;;;;;;;7.60;6.90;;;;;;;11.39;95.16;99138.84;4997196;28;102599;-64
2021/09/03 05:19:09;;;;;;;7.00;6.30;;;;;;;11.29;96.37;99132.47;4989570;28;103083;-64
2021/09/03 05:21:38;;;;;;;9.67;8.73;;;;;;;11.13;98.38;99125.69;4990882;28;103300;-65
2021/09/03 05:24:06;;;;;;;10.60;9.43;;;;;;;10.84;100.00;99120.56;5001310;28;102933;-65
2021/09/03 05:26:35;;;;;;;7.77;6.67;;;;;;;11.12;100.00;99124.84;5001538;28;102745;-64
2021/09/03 05:29:05;;;;;;;7.77;6.97;;;;;;;11.39;100.00;99127.41;4983199;28;102826;-64
2021/09/03 05:31:33;;;;;;;11.83;10.63;;;;;;;10.96;100.00;99127.69;4999800;28;103275;-62
2021/09/03 05:34:01;;;;;;;10.40;9.40;;;;;;;11.03;100.00;99136.06;5001540;28;104057;-65
2021/09/03 05:36:29;;;;;;;11.67;9.30;;;;;;;11.06;100.00;99135.81;4976295;28;102724;-65
2021/09/03 05:38:57;;;;;;;8.43;7.63;;;;;;;11.27;100.00;99128.25;4984135;28;102789;-65
2021/09/03 05:41:26;;;;;;;7.60;6.90;;;;;;;11.56;100.00;99132.41;4996826;28;103404;-65
2021/09/03 05:43:55;;;;;;;8.70;6.17;;;;;;;11.79;100.00;99130.81;5001026;28;103217;-65
2021/09/03 05:46:23;;;;;;;9.17;8.27;;;;;;;11.90;100.00;99129.06;4997951;28;103816;-64
2021/09/03 05:48:51;;;;;;;8.27;6.63;;;;;;;12.07;99.95;99126.09;5000762;28;102753;-63
2021/09/03 05:51:20;;;;;;;6.77;5.63;;;;;;;12.20;98.22;99121.63;5000787;28;103309;-64
2021/09/03 05:53:48;;;;;;;7.63;6.70;;;;;;;12.32;96.72;99126.97;5000828;28;103218;-63
2021/09/03 05:56:17;;;;;;;8.07;7.27;;;;;;;12.02;99.28;99130.88;5001567;28;102596;-64
2021/09/03 05:58:45;;;;;;;6.30;5.70;;;;;;;12.29;98.46;99130.69;5000958;28;103948;-63
2021/09/03 06:01:14;;;;;;;9.40;8.40;;;;;;;12.40;97.41;99135.22;4981578;28;103091;-64
2021/09/03 06:03:43;;;;;;;11.77;9.93;;;;;;;12.04;100.00;99131.59;4995964;28;103340;-63
2021/09/03 06:06:11;;;;;;;11.93;10.80;;;;;;;11.98;100.00;99136.50;4998612;28;102688;-63
2021/09/03 06:08:39;;;;;;;15.83;12.33;;;;;;;12.04;100.00;99136.06;4998759;28;102880;-64
2021/09/03 06:11:07;;;;;;;12.93;11.67;;;;;;;12.23;100.00;99136.44;5000848;28;103929;-64
2021/09/03 06:13:36;;;;;;;9.40;8.50;;;;;;;12.56;100.00;99122.53;5001067;28;103134;-63
2021/09/03 06:16:04;;;;;;;8.70;7.90;;;;;;;12.88;100.00;99123.66;4997535;28;103869;-66
2021/09/03 06:18:34;;;;;;;8.37;7.57;;;;;;;13.11;100.00;99124.56;4978009;28;102709;-63
2021/09/03 06:21:02;;;;;;;12.63;10.93;;;;;;;13.00;99.02;99122.69;4980481;28;103331;-63
2021/09/03 06:23:30;;;;;;;10.87;9.10;;;;;;;13.10;99.80;99120.25;4997374;28;103196;-64
2021/09/03 06:25:58;;;;;;;8.87;8.07;;;;;;;13.38;98.78;99119.81;5000480;28;102580;-64
2021/09/03 06:28:26;;;;;;;8.33;7.33;;;;;;;13.57;97.20;99122.75;4996545;28;102696;-64
2021/09/03 06:30:54;;;;;;;11.13;9.17;;;;;;;13.55;97.11;99118.53;4995067;28;104059;-64
2021/09/03 06:33:22;;;;;;;12.60;11.40;;;;;;;13.31;99.43;99114.13;4993066;28;103676;-63
2021/09/03 06:35:52;;;;;;;9.70;8.40;;;;;;;13.44;100.00;99122.00;4999670;28;102593;-65
2021/09/03 06:38:20;;;;;;;10.63;9.53;;;;;;;13.74;98.81;99114.31;5000321;28;102661;-65
2021/09/03 06:40:49;;;;;;;12.53;11.23;;;;;;;13.44;98.75;99122.00;5000281;28;103276;-63
2021/09/03 06:43:17;;;;;;;11.70;10.50;;;;;;;13.44;100.00;99115.84;4999474;28;103522;-63
2021/09/03 06:45:45;;;;;;;8.20;7.40;;;;;;;13.85;100.00;99114.31;4996647;28;102598;-64
2021/09/03 06:48:13;;;;;;;13.17;10.10;;;;;;;14.14;97.13;99119.97;4982861;28;102803;-64
2021/09/03 06:50:41;;;;;;;11.93;10.23;;;;;;;14.22;96.48;99116.69;4998798;28;103393;-62
2021/09/03 06:53:10;;;;;;;14.00;11.07;;;;;;;14.38;95.91;99110.03;4976632;28;103222;-62
2021/09/03 06:55:40;;;;;;;11.60;10.37;;;;;;;14.70;94.97;99117.19;5000164;28;103014;-64
2021/09/03 06:58:08;;;;;;;11.70;10.50;;;;;;;14.75;94.19;99121.16;4994551;28;102767;-64
2021/09/03 07:00:37;;;;;;;10.17;9.27;;;;;;;14.90;94.47;99116.38;4995368;28;103403;-64
2021/09/03 07:03:05;;;;;;;9.60;8.70;;;;;;;15.07;92.34;99121.97;4996856;28;103187;-62
2021/09/03 07:05:33;;;;;;;15.67;10.83;;;;;;;15.01;92.97;99113.66;4966707;28;102799;-62
2021/09/03 07:08:01;;;;;;;11.53;10.33;;;;;;;15.09;93.33;99117.38;5001336;28;103864;-62
2021/09/03 07:10:31;;;;;;;13.13;11.57;;;;;;;14.86;94.93;99121.09;5002956;28;103223;-62
2021/09/03 07:12:59;;;;;;;11.33;9.60;;;;;;;15.33;94.00;99130.41;4995568;28;103268;-63
2021/09/03 07:15:27;;;;;;;15.37;11.47;;;;;;;15.26;92.70;99123.94;5000755;28;102756;-64
2021/09/03 07:17:55;;;;;;;13.93;11.20;;;;;;;15.74;90.72;99118.06;4991845;28;102640;-64
2021/09/03 07:20:24;;;;;;;14.07;12.00;;;;;;;15.92;88.94;99117.31;4999085;28;103282;-65
2021/09/03 07:22:52;;;;;;;12.30;10.53;;;;;;;16.20;87.63;99118.38;4977621;28;103392;-63
2021/09/03 07:25:20;;;;;;;13.83;11.80;;;;;;;16.28;87.55;99118.53;4998522;28;102723;-62
2021/09/03 07:27:50;;;;;;;10.33;8.97;;;;;;;16.54;86.16;99119.75;5000361;28;103861;-63
2021/09/03 07:30:18;;;;;;;12.03;10.53;;;;;;;16.86;84.76;99118.66;5006637;28;103037;-62
2021/09/03 07:32:47;;;;;;;12.90;10.83;;;;;;;16.96;84.48;99124.81;4986066;28;103290;-62
2021/09/03 07:35:18;;;;;;;15.00;11.40;;;;;;;17.19;83.46;99126.22;4982605;28;102596;-64
2021/09/03 07:37:46;;;;;;;11.87;9.90;;;;;;;17.67;81.29;99127.00;4993107;28;102679;-64
2021/09/03 07:40:16;;;;;;;13.50;11.10;;;;;;;18.13;78.48;99127.97;4999478;28;103218;-62
2021/09/03 07:42:44;;;;;;;15.87;12.57;;;;;;;18.07;77.63;99123.22;4978163;28;104273;-63
2021/09/03 07:45:15;;;;;;;11.40;9.77;;;;;;;18.39;77.73;99118.22;4994979;28;102695;-63
2021/09/03 07:47:43;;;;;;;13.40;11.20;;;;;;;18.49;75.79;99113.72;4988575;28;103407;-62
2021/09/03 07:50:17;;;;;;;15.57;11.65;;;;;;;18.57;75.04;99113.81;4994381;28;103278;-62
2021/09/03 07:52:45;;;;;;;11.10;10.00;;;;;;;18.92;74.87;99108.44;4972398;28;104323;-62
2021/09/03 07:55:34;;;;;;;14.45;10.65;;;;;;;19.16;70.94;99112.34;4996366;28;102887;-63
2021/09/03 07:58:03;;;;;;;10.75;9.70;;;;;;;19.59;73.00;99112.38;4997189;28;102909;-63
2021/09/03 08:00:33;;;;;;;14.38;10.60;;;;;;;19.40;72.10;99109.88;4992732;28;104303;-65
2021/09/03 08:03:02;;;;;;;10.02;9.02;;;;;;;20.58;70.31;99102.75;4997745;28;103131;-65
2021/09/03 08:05:31;;;;;;;9.77;8.77;;;;;;;20.51;69.02;99107.13;4989946;28;102647;-65
2021/09/03 08:07:59;;;;;;;13.88;9.30;;;;;;;20.87;67.23;99092.41;4975357;28;103026;-64
2021/09/03 08:10:29;;;;;;;10.55;8.68;;;;;;;21.31;65.91;99095.63;4991079;28;103269;-63
2021/09/03 08:12:58;;;;;;;8.73;7.80;;;;;;;21.63;65.51;99094.75;4989996;28;103208;-66
2021/09/03 08:15:26;;;;;;;10.45;8.82;;;;;;;20.71;66.82;99095.94;4999505;28;103874;-65
2021/09/03 08:17:59;;;;;;;10.55;8.38;;;;;;;20.78;68.42;99091.56;4994531;28;102647;-67
2021/09/03 08:20:27;;;;;;;11.10;10.05;;;;;;;19.98;66.33;99100.19;4997695;28;103304;-68
2021/09/03 08:22:55;;;;;;;9.85;8.85;;;;;;;20.90;67.63;99092.09;4997217;28;103187;-67
2021/09/03 08:25:24;;;;;;;11.68;10.45;;;;;;;20.91;63.74;99099.16;4998865;28;102647;-67
2021/09/03 08:27:52;;;;;;;11.50;10.10;;;;;;;21.11;65.40;99103.19;4996318;28;104155;-67
2021/09/03 08:30:22;;;;;;;10.88;8.65;;;;;;;22.25;65.85;99091.22;4995963;28;103273;-67
2021/09/03 08:32:51;;;;;;;11.70;10.50;;;;;;;22.27;62.83;99089.19;4997544;28;103261;-67
2021/09/03 08:35:20;;;;;;;11.02;9.27;;;;;;;23.14;61.29;99093.34;4999194;28;102576;-67
2021/09/03 08:37:52;;;;;;;10.82;9.18;;;;;;;23.25;60.71;99101.00;4996891;28;102707;-67
2021/09/03 08:40:20;;;;;;;10.55;9.55;;;;;;;22.79;62.14;99092.09;4999268;28;103255;-68
2021/09/03 08:42:49;;;;;;;14.65;9.60;;;;;;;22.79;60.61;99088.59;4995395;28;103257;-67
2021/09/03 08:45:17;;;;;;;11.15;8.52;;;;;;;23.70;59.66;99094.72;4997307;28;103099;-68
2021/09/03 08:47:46;;;;;;;9.45;8.43;;;;;;;23.64;60.26;99096.28;4977757;28;102752;-67
2021/09/03 08:50:17;;;;;;;10.48;8.60;;;;;;;23.48;60.91;99096.47;4996970;28;103258;-68
2021/09/03 08:52:48;;;;;;;9.70;8.70;;;;;;;23.77;60.20;99100.22;4998629;28;103278;-67
2021/09/03 08:55:18;;;;;;;8.25;6.75;;;;;;;24.32;58.33;99095.19;4978101;28;102758;-67
2021/09/03 08:57:46;;;;;;;11.52;9.02;;;;;;;21.87;63.15;99100.09;4997613;28;102578;-67
2021/09/03 09:00:22;;;;;;;9.63;8.63;;;;;;;22.37;62.14;99095.19;4996572;28;103285;-67
2021/09/03 09:03:03;;;;;;;9.73;8.73;;;;;;;23.45;57.64;99096.81;4997510;28;103082;-67
2021/09/03 09:05:59;;;;;;;9.95;7.40;;;;;;;24.19;58.03;99092.34;4985891;28;102622;-68
2021/09/03 09:08:30;;;;;;;7.10;6.40;;;;;;;24.33;57.25;99094.19;4951847;28;103246;-67
2021/09/03 09:11:01;;;;;;;10.63;6.18;;;;;;;24.94;55.41;99089.28;4965378;28;103313;-67
2021/09/03 09:13:32;;;;;;;9.68;7.78;;;;;;;24.90;55.81;99088.00;4989455;28;103143;-67
2021/09/03 09:16:10;;;;;;;7.57;6.88;;;;;;;24.68;54.99;99090.66;4988713;28;102663;-67
2021/09/03 09:18:44;;;;;;;7.80;6.93;;;;;;;24.42;54.32;99095.72;4991617;28;103882;-68
2021/09/03 09:21:22;;;;;;;7.78;7.07;;;;;;;24.77;55.31;99092.19;4981080;28;103803;-66
2021/09/03 09:23:55;;;;;;;6.47;5.78;;;;;;;25.35;52.76;99085.69;4969796;28;103990;-66
2021/09/03 09:26:27;;;;;;;7.20;6.55;;;;;;;25.59;53.78;99078.22;4987143;28;102580;-66
2021/09/03 09:28:57;;;;;;;11.38;7.75;;;;;;;25.01;52.30;99080.19;4968454;28;102879;-66
2021/09/03 09:31:35;;;;;;;6.80;6.20;;;;;;;25.83;51.62;99070.47;4983712;28;103264;-64
2021/09/03 09:34:18;;;;;;;7.70;6.75;;;;;;;25.61;51.72;99066.16;4982705;28;103221;-66
2021/09/03 09:36:47;;;;;;;7.30;6.60;;;;;;;25.53;51.95;99066.31;4984471;28;102808;-64
2021/09/03 09:39:17;;;;;;;7.28;6.22;;;;;;;25.54;52.98;99068.00;4965278;28;103115;-65
2021/09/03 09:41:47;;;;;;;7.32;6.60;;;;;;;26.38;51.70;99050.59;4988535;28;103371;-67
2021/09/03 09:44:28;;;;;;;7.72;6.93;;;;;;;26.07;50.88;99054.78;4983132;28;103651;-65
2021/09/03 09:47:04;;;;;;;7.15;6.45;;;;;;;26.18;50.33;99054.25;4969101;28;102822;-65
2021/09/03 09:49:33;;;;;;;7.68;6.97;;;;;;;26.37;50.09;99053.47;4984026;28;102704;-65
2021/09/03 09:52:02;;;;;;;7.05;6.30;;;;;;;24.75;55.50;99053.75;4985383;28;103750;-65
2021/09/03 09:54:31;;;;;;;7.38;6.65;;;;;;;26.00;51.46;99056.59;4984377;28;103214;-65
2021/09/03 09:57:01;;;;;;;8.57;7.70;;;;;;;23.60;54.31;99051.00;4985008;28;102581;-65
2021/09/03 09:59:34;;;;;;;9.70;6.55;;;;;;;24.36;54.04;99053.31;4986164;28;103772;-66
2021/09/03 10:02:05;;;;;;;6.38;5.75;;;;;;;25.51;54.14;99043.22;4981807;28;104212;-66
2021/09/03 10:04:34;;;;;;;7.72;6.93;;;;;;;25.37;52.16;99042.25;4970671;28;103281;-65
2021/09/03 10:07:03;;;;;;;8.00;6.45;;;;;;;25.70;50.68;99043.34;4978333;28;102634;-65
2021/09/03 10:09:33;;;;;;;6.90;5.50;;;;;;;24.59;53.85;99035.06;5001277;28;102876;-67
2021/09/03 10:12:03;;;;;;;8.90;5.70;;;;;;;25.61;51.99;99035.56;4999204;28;104194;-67
2021/09/03 10:14:33;;;;;;;7.28;6.55;;;;;;;24.83;54.58;99033.88;5001357;28;103176;-65
2021/09/03 10:17:03;;;;;;;7.38;6.68;;;;;;;24.51;53.24;99035.19;4982972;28;103089;-67
2021/09/03 10:19:35;;;;;;;6.82;6.22;;;;;;;25.54;51.76;99037.41;4999635;28;103004;-65
2021/09/03 10:22:06;;;;;;;7.55;6.85;;;;;;;25.75;51.75;99037.31;4999703;28;103586;-65
2021/09/03 10:24:38;;;;;;;12.25;6.25;;;;;;;26.39;51.64;99037.84;5001890;28;103261;-65
2021/09/03 10:27:10;;;;;;;7.15;6.55;;;;;;;24.95;53.22;99031.50;4979509;28;102648;-65
2021/09/03 10:29:40;;;;;;;6.55;5.93;;;;;;;25.36;52.57;99036.00;5002467;28;102952;-67
2021/09/03 10:32:11;;;;;;;6.07;5.47;;;;;;;25.56;52.74;99030.78;5000820;28;103425;-67
2021/09/03 10:34:50;;;;;;;7.65;7.05;;;;;;;25.92;51.75;99023.28;5001022;28;103226;-67
2021/09/03 10:37:25;;;;;;;8.65;5.93;;;;;;;26.32;51.33;99020.75;4999781;28;102843;-67
2021/09/03 10:39:58;;;;;;;8.70;6.75;;;;;;;25.72;50.92;99025.03;5001464;28;102762;-67
2021/09/03 10:42:59;;;;;;;5.05;4.65;;;;;;;26.63;48.31;99021.06;5000550;28;104026;-65
2021/09/03 10:45:37;;;;;;;5.75;5.25;;;;;;;27.32;47.53;99017.97;4995994;28;103243;-67
2021/09/03 10:48:18;;;;;;;6.18;5.65;;;;;;;25.17;52.65;99019.63;4999420;28;103116;-67
2021/09/03 10:50:52;;;;;;;6.88;6.13;;;;;;;26.29;49.41;99021.16;4995951;28;102696;-67
2021/09/03 10:53:37;;;;;;;6.90;6.20;;;;;;;25.89;50.03;99015.56;4990260;28;103268;-66
2021/09/03 10:56:17;;;;;;;6.28;5.75;;;;;;;26.13;50.20;99002.53;4989770;28;103243;-64
2021/09/03 10:58:51;;;;;;;6.18;5.68;;;;;;;26.86;49.27;99013.38;4990053;28;103125;-65
2021/09/03 11:01:40;;;;;;;6.55;5.95;;;;;;;26.80;47.87;99003.41;4988519;28;102717;-65
2021/09/03 11:04:15;;;;;;;6.75;6.22;;;;;;;26.44;49.48;99002.88;4983727;28;103356;-64
2021/09/03 11:06:51;;;;;;;5.38;4.95;;;;;;;26.95;49.12;98995.88;4979358;28;103180;-66
2021/09/03 11:09:22;;;;;;;7.38;6.68;;;;;;;26.34;48.62;98986.19;4986340;28;102703;-66
2021/09/03 11:11:57;;;;;;;6.25;5.63;;;;;;;26.65;48.21;98994.59;4991750;28;105046;-66
2021/09/03 11:14:28;;;;;;;6.53;5.93;;;;;;;26.51;48.23;98995.59;4983538;28;103298;-68
2021/09/03 11:16:58;;;;;;;6.05;5.45;;;;;;;26.80;47.60;98986.31;4983824;28;103214;-68
2021/09/03 11:19:31;;;;;;;6.13;5.63;;;;;;;26.15;50.71;98986.97;4984522;28;102734;-68
2021/09/03 11:22:01;;;;;;;6.50;5.68;;;;;;;26.72;50.08;98983.75;4962396;28;103008;-68
2021/09/03 11:24:33;;;;;;;5.80;5.20;;;;;;;26.95;48.15;98978.78;4984537;28;103237;-68
2021/09/03 11:27:06;;;;;;;5.28;4.88;;;;;;;27.35;47.61;98974.16;4984134;28;103137;-66
2021/09/03 11:29:37;;;;;;;6.25;5.60;;;;;;;27.63;48.08;98977.47;4983547;28;102911;-66